.
WxDataArchive / Data Records for 2011-02-21
2011-02-20 February 2011 2011-02-22

Data Records for Monday, 21 February 2011

Time	Temp	Chill	HIndex	Humid	Dewpt	 Wind 	HiWind	WindDir	Rain 	Barom 
-----	----	-----	------	-----	-----	------	------	-------	-----	----- 
00:00	32.2	28.3	32.2	94	30.7	4	9	90	0.00	29.707 
00:05	32.2	28.3	32.2	94	30.7	4	9	112	0.00	29.707 
00:10	32.2	32.2	32.2	94	30.7	2	9	112	0.00	29.707 
00:15	32.2	32.2	32.2	94	30.7	3	7	90	0.00	29.708 
00:20	32.2	32.2	32.2	94	30.7	3	6	90	0.00	29.708 
00:25	32.2	32.2	32.2	94	30.7	3	7	90	0.00	29.708 
00:30	32.2	32.2	32.2	94	30.7	3	9	90	0.00	29.711 
00:35	32.2	28.3	32.2	94	30.7	4	11	112	0.01	29.711 
00:40	32.2	32.2	32.2	94	30.7	3	7	112	0.00	29.711 
00:45	32.2	32.2	32.2	94	30.7	3	9	90	0.00	29.701 
00:50	32.4	32.4	32.4	94	30.9	1	3	270	0.00	29.701 
00:55	32.4	26.7	32.4	94	30.9	6	11	90	0.00	29.701 
01:00	32.4	32.4	32.4	94	30.9	1	6	68	0.01	29.709 
01:05	32.4	32.4	32.4	94	30.9	3	6	112	0.00	29.709 
01:10	32.4	28.5	32.4	94	30.9	4	11	90	0.00	29.709 
01:15	32.4	28.5	32.4	94	30.9	4	10	90	0.01	29.708 
01:20	32.4	32.4	32.4	94	30.9	3	7	112	0.00	29.708 
01:25	32.5	32.5	32.5	94	31.0	2	7	112	0.00	29.708 
01:30	32.5	32.5	32.5	94	31.0	3	7	112	0.00	29.705 
01:35	32.5	32.5	32.5	94	31.0	1	10	112	0.01	29.705 
01:40	32.5	32.5	32.5	94	31.0	2	10	112	0.00	29.705 
01:45	32.4	28.5	32.4	94	30.9	4	10	112	0.00	29.708 
01:50	32.4	28.5	32.4	94	30.9	4	10	112	0.00	29.708 
01:55	32.2	32.2	32.2	94	30.7	3	13	90	0.00	29.708 
02:00	32.2	32.2	32.2	94	30.7	1	4	248	0.00	29.720 
02:05	32.1	28.2	32.1	94	30.6	4	11	90	0.00	29.720 
02:10	32.1	27.2	32.1	94	30.6	5	11	112	0.00	29.720 
02:15	32.1	27.2	32.1	94	30.6	5	13	112	0.00	29.705 
02:20	32.1	28.2	32.1	94	30.6	4	12	90	0.00	29.705 
02:25	32.1	27.2	32.1	94	30.6	5	12	90	0.00	29.705 
02:30	31.9	31.9	31.9	94	30.4	2	11	112	0.00	29.723 
02:35	32.1	32.1	32.1	94	30.6	3	13	112	0.00	29.723 
02:40	31.9	28.0	31.9	94	30.4	4	11	90	0.00	29.723 
02:45	31.9	31.9	31.9	94	30.4	2	6	112	0.00	29.710 
02:50	31.9	31.9	31.9	94	30.4	1	4	90	0.00	29.710 
02:55	31.9	27.0	31.9	94	30.4	5	12	112	0.00	29.710 
03:00	31.8	26.8	31.8	94	30.3	5	16	112	0.01	29.707 
03:05	31.8	26.0	31.8	94	30.3	6	12	112	0.00	29.707 
03:10	31.8	26.0	31.8	94	30.3	6	16	90	0.00	29.707 
03:15	31.8	26.0	31.8	94	30.3	6	13	90	0.01	29.697 
03:20	31.8	27.8	31.8	94	30.3	4	11	112	0.00	29.697 
03:25	31.8	31.8	31.8	94	30.3	3	7	112	0.00	29.697 
03:30	31.6	26.6	31.6	94	30.1	5	13	112	0.00	29.711 
03:35	31.6	31.6	31.6	93	29.8	2	7	112	0.00	29.711 
03:40	31.6	31.6	31.6	94	30.1	2	6	112	0.01	29.711 
03:45	31.5	31.5	31.5	93	29.7	2	5	112	0.01	29.748 
03:50	31.5	31.5	31.5	93	29.7	2	9	112	0.01	29.748 
03:55	31.5	31.5	31.5	93	29.7	2	10	112	0.01	29.748 
04:00	31.2	31.2	31.2	93	29.4	3	9	112	0.00	29.738 
04:05	31.2	31.2	31.2	93	29.4	3	11	112	0.00	29.738 
04:10	31.0	31.0	31.0	93	29.2	3	7	112	0.00	29.738 
04:15	31.0	31.0	31.0	93	29.2	3	10	112	0.01	29.737 
04:20	30.9	25.8	30.9	93	29.1	5	10	112	0.00	29.737 
04:25	30.7	26.6	30.7	93	28.9	4	12	112	0.00	29.737 
04:30	30.7	26.6	30.7	93	28.9	4	13	112	0.00	29.721 
04:35	30.4	25.2	30.4	92	28.4	5	11	112	0.00	29.721 
04:40	30.3	30.3	30.3	92	28.3	3	11	112	0.00	29.721 
04:45	30.3	26.1	30.3	92	28.3	4	11	112	0.00	29.757 
04:50	30.3	30.3	30.3	92	28.3	2	11	112	0.00	29.757 
04:55	30.1	30.1	30.1	92	28.1	2	6	90	0.00	29.757 
05:00	30.0	24.7	30.0	92	28.0	5	11	112	0.00	29.741 
05:05	29.8	23.6	29.8	92	27.8	6	13	112	0.00	29.741 
05:10	29.8	29.8	29.8	92	27.8	3	9	112	0.00	29.741 
05:15	30.0	30.0	30.0	92	28.0	2	4	225	0.00	29.788 
05:20	30.0	30.0	30.0	92	28.0	3	7	135	0.00	29.788 
05:25	29.8	25.5	29.8	91	27.5	4	9	112	0.00	29.788 
05:30	29.8	25.5	29.8	91	27.5	4	12	90	0.00	29.773 
05:35	29.8	24.5	29.8	91	27.5	5	14	112	0.00	29.773 
05:40	29.8	25.5	29.8	91	27.5	4	13	112	0.00	29.773 
05:45	29.8	24.5	29.8	90	27.2	5	10	90	0.00	29.759 
05:50	29.8	29.8	29.8	90	27.2	3	10	112	0.00	29.759 
05:55	29.8	22.8	29.8	90	27.2	7	15	112	0.00	29.759 
06:00	29.8	25.5	29.8	90	27.2	4	13	90	0.00	29.781 
06:05	30.0	30.0	30.0	91	27.7	3	7	112	0.00	29.781 
06:10	30.0	30.0	30.0	91	27.7	2	9	158	0.00	29.781 
06:15	30.0	30.0	30.0	91	27.7	3	6	90	0.00	29.791 
06:20	30.1	24.0	30.1	91	27.8	6	14	90	0.00	29.791 
06:25	30.1	25.9	30.1	91	27.8	4	9	112	0.00	29.791 
06:30	30.1	24.0	30.1	91	27.8	6	13	112	0.00	29.747 
06:35	30.0	23.8	30.0	91	27.7	6	14	112	0.00	29.747 
06:40	30.0	24.7	30.0	91	27.7	5	12	112	0.00	29.747 
06:45	30.0	23.8	30.0	91	27.7	6	14	112	0.00	29.749 
06:50	30.0	30.0	30.0	91	27.7	3	10	112	0.00	29.749 
06:55	30.0	23.1	30.0	91	27.7	7	16	112	0.00	29.749 
07:00	30.0	24.7	30.0	91	27.7	5	12	112	0.00	29.762 
07:05	30.0	25.8	30.0	91	27.7	4	8	112	0.00	29.762 
07:10	30.0	24.7	30.0	91	27.7	5	13	112	0.00	29.762 
07:15	30.0	25.8	30.0	91	27.7	4	10	112	0.00	29.773 
07:20	30.0	23.1	30.0	91	27.7	7	15	112	0.00	29.773 
07:25	30.0	22.4	30.0	90	27.4	8	18	112	0.00	29.773 
07:30	30.0	24.7	30.0	90	27.4	5	11	112	0.00	29.774 
07:35	30.0	30.0	30.0	90	27.4	3	9	90	0.00	29.774 
07:40	30.0	25.8	30.0	90	27.4	4	13	112	0.00	29.774 
07:45	29.8	25.5	29.8	90	27.2	4	12	112	0.00	29.783 
07:50	29.8	25.5	29.8	90	27.2	4	9	112	0.00	29.783 
07:55	29.8	29.8	29.8	91	27.5	3	10	112	0.00	29.783 
08:00	29.5	24.1	29.5	90	26.9	5	15	112	0.00	29.789 
08:05	29.5	24.1	29.5	90	26.9	5	11	112	0.00	29.789 
08:10	29.5	23.3	29.5	90	26.9	6	14	112	0.00	29.789 
08:15	29.4	24.0	29.4	90	26.8	5	15	112	0.00	29.802 
08:20	29.4	22.4	29.4	89	26.6	7	15	112	0.00	29.802 
08:25	29.3	22.2	29.3	89	26.5	7	14	90	0.00	29.802 
08:30	29.4	23.1	29.4	89	26.6	6	11	112	0.00	29.794 
08:35	29.4	24.0	29.4	89	26.6	5	12	112	0.00	29.794 
08:40	29.3	23.9	29.3	89	26.5	5	14	112	0.00	29.794 
08:45	29.1	22.8	29.1	89	26.3	6	15	112	0.00	29.800 
08:50	29.1	23.7	29.1	89	26.3	5	11	112	0.00	29.800 
08:55	29.0	22.7	29.0	89	26.2	6	18	112	0.00	29.800 
09:00	29.0	23.6	29.0	89	26.2	5	11	112	0.00	29.820 
09:05	28.8	22.4	28.8	89	26.0	6	13	90	0.00	29.820 
09:10	28.8	22.4	28.8	89	26.0	6	12	112	0.00	29.820 
09:15	28.8	23.3	28.8	89	26.0	5	13	90	0.00	29.817 
09:20	28.8	23.3	28.8	89	26.0	5	10	112	0.00	29.817 
09:25	28.7	23.2	28.7	89	25.9	5	12	90	0.00	29.817 
09:30	28.5	24.0	28.5	89	25.7	4	10	112	0.01	29.823 
09:35	28.4	22.8	28.4	89	25.6	5	10	112	0.00	29.823 
09:40	28.4	22.8	28.4	89	25.6	5	13	112	0.00	29.823 
09:45	28.2	22.6	28.2	89	25.4	5	12	112	0.00	29.836 
09:50	28.1	20.8	28.1	89	25.3	7	12	90	0.00	29.836 
09:55	28.1	23.6	28.1	89	25.3	4	11	90	0.00	29.836 
10:00	28.1	21.6	28.1	89	25.3	6	13	112	0.00	29.840 
10:05	28.1	22.5	28.1	89	25.3	5	9	90	0.00	29.840 
10:10	28.1	23.6	28.1	89	25.3	4	11	112	0.00	29.840 
10:15	28.1	28.1	28.1	90	25.6	2	7	135	0.00	29.852 
10:20	28.1	28.1	28.1	90	25.6	3	7	112	0.00	29.852 
10:25	27.9	23.3	27.9	90	25.4	4	10	90	0.00	29.852 
10:30	27.9	27.9	27.9	90	25.4	3	7	112	0.00	29.854 
10:35	27.8	22.1	27.8	89	25.0	5	15	90	0.00	29.854 
10:40	27.8	27.8	27.8	89	25.0	3	10	90	0.00	29.854 
10:45	27.8	23.2	27.8	90	25.3	4	9	112	0.00	29.840 
10:50	27.8	27.8	27.8	90	25.3	3	12	90	0.00	29.840 
10:55	27.8	27.8	27.8	90	25.3	3	12	90	0.00	29.840 
11:00	27.6	21.9	27.6	90	25.1	5	16	90	0.00	29.841 
11:05	27.6	27.6	27.6	90	25.1	3	10	90	0.00	29.841 
11:10	27.5	20.9	27.5	90	25.0	6	15	90	0.00	29.841 
11:15	27.5	22.9	27.5	90	25.0	4	12	112	0.00	29.844 
11:20	27.5	27.5	27.5	90	25.0	3	13	112	0.00	29.844 
11:25	27.3	19.8	27.3	90	24.8	7	15	90	0.00	29.844 
11:30	27.3	20.6	27.3	90	24.8	6	15	112	0.00	29.812 
11:35	27.5	20.9	27.5	91	25.2	6	17	112	0.00	29.812 
11:40	27.3	22.6	27.3	91	25.0	4	11	112	0.00	29.812 
11:45	27.3	20.6	27.3	91	25.0	6	14	112	0.00	29.813 
11:50	27.3	22.6	27.3	91	25.0	4	13	90	0.00	29.813 
11:55	27.5	20.9	27.5	91	25.2	6	13	112	0.00	29.813 
12:00	27.5	20.1	27.5	90	25.0	7	17	112	0.00	29.836 
12:05	27.5	21.8	27.5	90	25.0	5	12	112	0.00	29.836 
12:10	27.3	27.3	27.3	90	24.8	3	7	112	0.00	29.836 
12:15	27.0	22.3	27.0	90	24.5	4	14	68	0.00	29.847 
12:20	26.9	22.2	26.9	90	24.4	4	12	112	0.00	29.847 
12:25	26.9	21.1	26.9	90	24.4	5	13	90	0.00	29.847 
12:30	26.7	19.9	26.7	90	24.2	6	13	112	0.00	29.826 
12:35	26.7	19.1	26.7	90	24.2	7	17	90	0.00	29.826 
12:40	26.6	19.8	26.6	89	23.8	6	13	90	0.00	29.826 
12:45	26.7	20.9	26.7	89	23.9	5	14	90	0.00	29.824 
12:50	26.9	21.1	26.9	89	24.1	5	10	112	0.00	29.824 
12:55	26.9	21.1	26.9	89	24.1	5	11	90	0.00	29.824 
13:00	26.7	19.9	26.7	89	23.9	6	12	112	0.00	29.826 
13:05	26.7	22.0	26.7	89	23.9	4	12	112	0.00	29.826 
13:10	26.7	22.0	26.7	89	23.9	4	13	112	0.00	29.826 
13:15	26.6	26.6	26.6	90	24.1	3	10	90	0.00	29.854 
13:20	26.6	20.7	26.6	90	24.1	5	11	112	0.00	29.854 
13:25	26.6	26.6	26.6	90	24.1	2	7	90	0.00	29.854 
13:30	26.4	21.6	26.4	90	23.9	4	9	90	0.00	29.849 
13:35	26.3	21.5	26.3	90	23.8	4	11	112	0.00	29.849 
13:40	26.3	21.5	26.3	91	24.0	4	9	112	0.00	29.849 
13:45	26.3	21.5	26.3	91	24.0	4	11	112	0.00	29.836 
13:50	26.3	20.4	26.3	91	24.0	5	11	112	0.00	29.836 
13:55	26.3	21.5	26.3	92	24.3	4	11	90	0.00	29.836 
14:00	26.3	21.5	26.3	92	24.3	4	14	112	0.00	29.814 
14:05	26.1	19.2	26.1	92	24.1	6	16	90	0.00	29.814 
14:10	26.0	19.1	26.0	92	24.0	6	12	112	0.00	29.814 
14:15	26.3	26.3	26.3	92	24.3	3	9	112	0.00	29.806 
14:20	26.3	20.4	26.3	92	24.3	5	14	90	0.00	29.806 
14:25	26.3	26.3	26.3	92	24.3	3	12	90	0.00	29.806 
14:30	26.1	26.1	26.1	92	24.1	3	10	112	0.00	29.796 
14:35	25.8	20.9	25.8	91	23.5	4	11	112	0.00	29.796 
14:40	25.7	25.7	25.7	91	23.4	3	14	90	0.00	29.796 
14:45	25.6	20.7	25.6	91	23.3	4	12	90	0.00	29.827 
14:50	25.4	25.4	25.4	90	22.9	3	9	90	0.00	29.827 
14:55	25.3	20.3	25.3	90	22.8	4	11	90	0.00	29.827 
15:00	25.3	19.2	25.3	90	22.8	5	14	112	0.00	29.803 
15:05	25.3	25.3	25.3	90	22.8	3	10	90	0.00	29.803 
15:10	25.0	18.9	25.0	90	22.5	5	11	112	0.00	29.803 
15:15	24.7	19.6	24.7	89	21.9	4	12	112	0.00	29.827 
15:20	24.7	24.7	24.7	90	22.2	3	9	112	0.00	29.827 
15:25	24.4	18.1	24.4	90	21.9	5	12	90	0.00	29.827 
15:30	24.4	24.4	24.4	90	21.9	3	7	90	0.00	29.850 
15:35	24.1	17.8	24.1	89	21.3	5	11	112	0.00	29.850 
15:40	23.9	23.9	23.9	90	21.4	3	10	112	0.00	29.850 
15:45	23.9	23.9	23.9	90	21.4	3	10	90	0.00	29.844 
15:50	23.6	17.2	23.6	90	21.1	5	15	112	0.00	29.844 
15:55	23.3	15.9	23.3	90	20.8	6	13	90	0.00	29.844 
16:00	23.3	18.0	23.3	91	21.1	4	13	112	0.00	29.855 
16:05	23.2	23.2	23.2	91	21.0	3	13	90	0.00	29.855 
16:10	23.2	23.2	23.2	91	21.0	3	12	112	0.00	29.855 
16:15	23.0	23.0	23.0	91	20.8	3	7	112	0.00	29.846 
16:20	22.9	17.6	22.9	91	20.7	4	11	90	0.00	29.846 
16:25	22.7	17.3	22.7	92	20.7	4	13	90	0.00	29.846 
16:30	22.7	17.3	22.7	92	20.7	4	12	90	0.00	29.858 
16:35	22.7	22.7	22.7	92	20.7	3	12	112	0.00	29.858 
16:40	22.7	17.3	22.7	92	20.7	4	10	90	0.00	29.858 
16:45	22.7	22.7	22.7	92	20.7	3	9	112	0.00	29.860 
16:50	22.5	22.5	22.5	92	20.5	3	9	112	0.00	29.860 
16:55	22.5	22.5	22.5	92	20.5	2	4	90	0.00	29.860 
17:00	22.5	22.5	22.5	92	20.5	3	9	112	0.00	29.856 
17:05	22.4	22.4	22.4	92	20.4	3	9	90	0.00	29.856 
17:10	22.4	22.4	22.4	92	20.4	3	9	112	0.00	29.856 
17:15	22.2	22.2	22.2	92	20.2	3	10	112	0.00	29.862 
17:20	22.2	16.8	22.2	92	20.2	4	10	112	0.00	29.862 
17:25	22.2	22.2	22.2	92	20.2	2	5	112	0.00	29.862 
17:30	22.2	22.2	22.2	92	20.2	2	5	90	0.00	29.875 
17:35	22.2	22.2	22.2	92	20.2	1	5	112	0.00	29.875 
17:40	22.2	22.2	22.2	92	20.2	1	6	68	0.00	29.875 
17:45	22.1	22.1	22.1	92	20.1	2	6	112	0.00	29.879 
17:50	22.1	22.1	22.1	92	20.1	3	7	90	0.00	29.879 
17:55	21.9	16.4	21.9	92	19.9	4	9	90	0.00	29.879 
18:00	21.9	21.9	21.9	92	19.9	3	7	90	0.00	29.869 
18:05	21.9	21.9	21.9	92	19.9	3	10	90	0.00	29.869 
18:10	21.8	21.8	21.8	92	19.8	3	10	112	0.00	29.869 
18:15	21.8	16.3	21.8	92	19.8	4	9	112	0.00	29.879 
18:20	21.6	21.6	21.6	92	19.6	2	6	112	0.00	29.879 
18:25	21.6	21.6	21.6	92	19.6	2	7	112	0.00	29.879 
18:30	21.4	14.6	21.4	92	19.4	5	11	90	0.00	29.869 
18:35	21.4	21.4	21.4	92	19.4	3	10	90	0.00	29.869 
18:40	21.3	14.5	21.3	92	19.3	5	12	112	0.00	29.869 
18:45	21.1	13.2	21.1	91	18.9	6	13	112	0.00	29.863 
18:50	21.0	21.0	21.0	91	18.8	3	7	90	0.00	29.863 
18:55	21.0	21.0	21.0	91	18.8	3	7	112	0.00	29.863 
19:00	20.8	15.1	20.8	91	18.6	4	13	112	0.00	29.889 
19:05	20.6	14.9	20.6	91	18.4	4	12	90	0.00	29.889 
19:10	20.5	20.5	20.5	91	18.3	3	10	112	0.00	29.889 
19:15	20.2	20.2	20.2	91	18.0	1	8	90	0.00	29.885 
19:20	20.0	20.0	20.0	91	17.8	2	6	112	0.00	29.885 
19:25	19.9	19.9	19.9	91	17.7	1	4	90	0.00	29.885 
19:30	19.9	19.9	19.9	91	17.7	2	5	45	0.00	29.917 
19:35	19.9	19.9	19.9	91	17.7	1	6	45	0.00	29.917 
19:40	19.9	19.9	19.9	91	17.7	1	6	0	0.00	29.917 
19:45	19.9	19.9	19.9	91	17.7	1	6	45	0.00	29.927 
19:50	19.7	19.7	19.7	91	17.5	1	6	22	0.00	29.927 
19:55	19.7	19.7	19.7	91	17.5	2	6	90	0.00	29.927 
20:00	19.5	19.5	19.5	90	17.1	2	10	90	0.00	29.926 
20:05	19.4	19.4	19.4	90	17.0	3	10	112	0.00	29.926 
20:10	19.4	19.4	19.4	90	17.0	2	5	112	0.00	29.926 
20:15	19.4	19.4	19.4	90	17.0	2	5	22	0.00	29.934 
20:20	19.4	19.4	19.4	90	17.0	2	9	22	0.00	29.934 
20:25	19.2	19.2	19.2	90	16.8	3	6	45	0.00	29.934 
20:30	19.2	19.2	19.2	90	16.8	3	7	112	0.00	29.943 
20:35	19.1	19.1	19.1	90	16.7	2	6	112	0.00	29.943 
20:40	19.2	19.2	19.2	90	16.8	2	6	90	0.00	29.943 
20:45	19.1	19.1	19.1	90	16.7	3	7	135	0.00	29.946 
20:50	19.1	19.1	19.1	90	16.7	2	4	135	0.00	29.946 
20:55	19.1	19.1	19.1	89	16.4	3	9	112	0.00	29.946 
21:00	19.1	19.1	19.1	89	16.4	2	6	112	0.00	29.949 
21:05	19.1	19.1	19.1	89	16.4	2	7	68	0.00	29.949 
21:10	19.1	19.1	19.1	89	16.4	2	7	112	0.00	29.949 
21:15	19.1	19.1	19.1	89	16.4	2	10	68	0.00	29.961 
21:20	18.9	18.9	18.9	89	16.2	3	10	112	0.00	29.961 
21:25	18.9	18.9	18.9	89	16.2	3	10	112	0.00	29.961 
21:30	18.8	18.8	18.8	89	16.1	3	11	90	0.00	29.962 
21:35	18.8	18.8	18.8	89	16.1	3	10	112	0.00	29.962 
21:40	18.8	18.8	18.8	89	16.1	2	7	90	0.00	29.962 
21:45	18.8	18.8	18.8	89	16.1	2	9	90	0.00	29.974 
21:50	18.6	18.6	18.6	89	15.9	3	13	112	0.00	29.974 
21:55	18.6	18.6	18.6	88	15.6	2	6	90	0.00	29.974 
22:00	18.6	18.6	18.6	89	15.9	3	12	90	0.00	29.972 
22:05	18.6	18.6	18.6	88	15.6	2	9	112	0.00	29.972 
22:10	18.6	18.6	18.6	88	15.6	3	11	22	0.00	29.972 
22:15	18.6	18.6	18.6	88	15.6	3	8	135	0.00	29.980 
22:20	18.4	18.4	18.4	88	15.5	3	12	112	0.00	29.980 
22:25	18.4	12.4	18.4	88	15.5	4	10	112	0.00	29.980 
22:30	18.4	18.4	18.4	88	15.5	3	11	90	0.00	29.982 
22:35	18.3	18.3	18.3	88	15.4	3	10	90	0.00	29.982 
22:40	18.3	18.3	18.3	88	15.4	3	9	112	0.00	29.982 
22:45	18.3	18.3	18.3	88	15.4	3	7	112	0.00	29.994 
22:50	18.3	18.3	18.3	88	15.4	3	6	112	0.00	29.994 
22:55	18.3	18.3	18.3	88	15.4	2	5	90	0.00	29.994 
23:00	18.1	18.1	18.1	88	15.2	2	5	68	0.00	30.004 
23:05	18.1	18.1	18.1	88	15.2	3	8	112	0.00	30.004 
23:10	18.1	18.1	18.1	88	15.2	2	5	112	0.00	30.004 
23:15	18.0	18.0	18.0	88	15.1	2	6	112	0.00	30.015 
23:20	18.0	18.0	18.0	88	15.1	3	11	22	0.00	30.015 
23:25	17.8	17.8	17.8	88	14.9	3	7	112	0.00	30.015 
23:30	17.8	17.8	17.8	88	14.9	2	7	112	0.00	30.021 
23:35	17.8	17.8	17.8	88	14.9	2	8	112	0.00	30.021 
23:40	17.7	17.7	17.7	88	14.8	2	7	112	0.00	30.021 
23:45	17.7	17.7	17.7	88	14.8	3	12	112	0.00	30.018 
23:50	17.5	17.5	17.5	88	14.6	2	9	112	0.00	30.018 
23:55	17.5	17.5	17.5	88	14.6	2	10	112	0.00	30.018 

CoCoRaHS
IN-AL-39
A2 Web Hosting
Creative Commons License
GoDaddy
search engine by freefind advanced

loaded 2018-11-16 11:56:09 • last modified 2010-11-18 10:43:29
Privacy PolicyDisclaimer
• wx.awcolley.com is powered by PmWiki v.2002016 •
• all content (unless otherwise noted) © 2018 A W Colley